sensor_id;sensor_type;location;lat;lon;timestamp;P1;durP1;ratioP1;P2;durP2;ratioP2
78148;SDS011;67396;42.664;23.382;2023-04-15T00:01:26;9.35;;;2.17;;
78148;SDS011;67396;42.664;23.382;2023-04-15T00:03:59;4.55;;;2.05;;
78148;SDS011;67396;42.664;23.382;2023-04-15T00:06:30;4.00;;;2.00;;
78148;SDS011;67396;42.664;23.382;2023-04-15T00:08:55;5.20;;;2.33;;
78148;SDS011;67396;42.664;23.382;2023-04-15T00:17:12;6.05;;;3.05;;
78148;SDS011;67396;42.664;23.382;2023-04-15T00:20:26;6.03;;;2.05;;
78148;SDS011;67396;42.664;23.382;2023-04-15T00:22:52;5.38;;;2.17;;
78148;SDS011;67396;42.664;23.382;2023-04-15T00:25:18;6.60;;;2.75;;
78148;SDS011;67396;42.664;23.382;2023-04-15T00:27:50;5.60;;;2.38;;
78148;SDS011;67396;42.664;23.382;2023-04-15T00:30:17;5.72;;;2.88;;
78148;SDS011;67396;42.664;23.382;2023-04-15T00:32:46;7.30;;;2.50;;
78148;SDS011;67396;42.664;23.382;2023-04-15T00:35:18;6.60;;;3.05;;
78148;SDS011;67396;42.664;23.382;2023-04-15T00:38:07;9.25;;;3.30;;
78148;SDS011;67396;42.664;23.382;2023-04-15T00:40:53;6.97;;;3.15;;
78148;SDS011;67396;42.664;23.382;2023-04-15T00:43:37;6.70;;;2.55;;
78148;SDS011;67396;42.664;23.382;2023-04-15T00:46:15;6.07;;;2.75;;
78148;SDS011;67396;42.664;23.382;2023-04-15T00:48:48;6.75;;;3.20;;
78148;SDS011;67396;42.664;23.382;2023-04-15T00:51:35;8.50;;;4.13;;
78148;SDS011;67396;42.664;23.382;2023-04-15T00:54:30;9.63;;;3.72;;
78148;SDS011;67396;42.664;23.382;2023-04-15T00:57:01;7.90;;;3.90;;
78148;SDS011;67396;42.664;23.382;2023-04-15T00:59:52;5.80;;;2.70;;
78148;SDS011;67396;42.664;23.382;2023-04-15T01:02:42;6.82;;;3.60;;
78148;SDS011;67396;42.664;23.382;2023-04-15T01:05:07;7.30;;;3.50;;
78148;SDS011;67396;42.664;23.382;2023-04-15T01:07:41;9.60;;;4.03;;
78148;SDS011;67396;42.664;23.382;2023-04-15T01:10:18;9.10;;;3.80;;
78148;SDS011;67396;42.664;23.382;2023-04-15T01:12:49;10.52;;;4.10;;
78148;SDS011;67396;42.664;23.382;2023-04-15T01:15:19;9.75;;;5.35;;
78148;SDS011;67396;42.664;23.382;2023-04-15T01:18:06;14.55;;;6.35;;
78148;SDS011;67396;42.664;23.382;2023-04-15T01:20:36;10.88;;;3.40;;
78148;SDS011;67396;42.664;23.382;2023-04-15T01:25:43;9.70;;;3.83;;
78148;SDS011;67396;42.664;23.382;2023-04-15T01:28:11;8.65;;;3.10;;
78148;SDS011;67396;42.664;23.382;2023-04-15T01:30:37;5.40;;;3.13;;
78148;SDS011;67396;42.664;23.382;2023-04-15T01:33:02;6.95;;;3.28;;
78148;SDS011;67396;42.664;23.382;2023-04-15T01:35:28;8.45;;;2.70;;
78148;SDS011;67396;42.664;23.382;2023-04-15T01:38:07;6.95;;;2.72;;
78148;SDS011;67396;42.664;23.382;2023-04-15T01:40:33;5.68;;;2.97;;
78148;SDS011;67396;42.664;23.382;2023-04-15T01:50:36;5.07;;;2.63;;
78148;SDS011;67396;42.664;23.382;2023-04-15T01:53:13;6.05;;;3.05;;
78148;SDS011;67396;42.664;23.382;2023-04-15T01:56:07;6.85;;;2.85;;
78148;SDS011;67396;42.664;23.382;2023-04-15T01:58:35;5.80;;;2.95;;
78148;SDS011;67396;42.664;23.382;2023-04-15T02:01:04;6.68;;;2.83;;
78148;SDS011;67396;42.664;23.382;2023-04-15T02:03:44;5.13;;;2.63;;
78148;SDS011;67396;42.664;23.382;2023-04-15T02:06:16;8.43;;;2.95;;
78148;SDS011;67396;42.664;23.382;2023-04-15T02:11:30;11.23;;;3.28;;
78148;SDS011;67396;42.664;23.382;2023-04-15T02:14:09;7.07;;;3.17;;
78148;SDS011;67396;42.664;23.382;2023-04-15T02:16:42;6.05;;;3.13;;
78148;SDS011;67396;42.664;23.382;2023-04-15T02:19:46;5.88;;;2.72;;
78148;SDS011;67396;42.664;23.382;2023-04-15T02:25:35;4.55;;;2.70;;
78148;SDS011;67396;42.664;23.382;2023-04-15T02:28:18;4.05;;;2.55;;
78148;SDS011;67396;42.664;23.382;2023-04-15T02:30:58;5.28;;;2.83;;
78148;SDS011;67396;42.664;23.382;2023-04-15T02:33:43;4.95;;;2.60;;
78148;SDS011;67396;42.664;23.382;2023-04-15T02:36:26;5.93;;;2.78;;
78148;SDS011;67396;42.664;23.382;2023-04-15T02:39:04;9.82;;;3.45;;
78148;SDS011;67396;42.664;23.382;2023-04-15T02:41:43;10.32;;;2.85;;
78148;SDS011;67396;42.664;23.382;2023-04-15T02:44:21;6.38;;;3.25;;
78148;SDS011;67396;42.664;23.382;2023-04-15T02:47:11;6.15;;;2.90;;
78148;SDS011;67396;42.664;23.382;2023-04-15T02:49:42;5.47;;;2.50;;
78148;SDS011;67396;42.664;23.382;2023-04-15T02:52:21;9.30;;;3.08;;
78148;SDS011;67396;42.664;23.382;2023-04-15T02:54:59;11.63;;;3.05;;
78148;SDS011;67396;42.664;23.382;2023-04-15T02:57:28;6.97;;;3.30;;
78148;SDS011;67396;42.664;23.382;2023-04-15T02:59:56;9.65;;;3.70;;
78148;SDS011;67396;42.664;23.382;2023-04-15T03:05:10;12.85;;;5.18;;
78148;SDS011;67396;42.664;23.382;2023-04-15T03:07:51;10.82;;;5.88;;
78148;SDS011;67396;42.664;23.382;2023-04-15T03:10:21;12.63;;;4.80;;
78148;SDS011;67396;42.664;23.382;2023-04-15T03:12:47;8.13;;;3.70;;
78148;SDS011;67396;42.664;23.382;2023-04-15T03:15:13;11.73;;;3.90;;
78148;SDS011;67396;42.664;23.382;2023-04-15T03:17:39;7.47;;;3.38;;
78148;SDS011;67396;42.664;23.382;2023-04-15T03:20:05;8.38;;;3.55;;
78148;SDS011;67396;42.664;23.382;2023-04-15T03:22:34;11.68;;;3.58;;
78148;SDS011;67396;42.664;23.382;2023-04-15T03:24:59;6.20;;;3.33;;
78148;SDS011;67396;42.664;23.382;2023-04-15T03:27:25;9.60;;;4.22;;
78148;SDS011;67396;42.664;23.382;2023-04-15T03:29:50;12.23;;;4.80;;
78148;SDS011;67396;42.664;23.382;2023-04-15T03:32:16;10.90;;;4.25;;
78148;SDS011;67396;42.664;23.382;2023-04-15T03:34:42;11.73;;;4.68;;
78148;SDS011;67396;42.664;23.382;2023-04-15T03:37:08;7.05;;;3.30;;
78148;SDS011;67396;42.664;23.382;2023-04-15T03:39:33;6.53;;;2.90;;
78148;SDS011;67396;42.664;23.382;2023-04-15T03:42:00;8.80;;;4.60;;
78148;SDS011;67396;42.664;23.382;2023-04-15T03:44:26;6.72;;;3.85;;
78148;SDS011;67396;42.664;23.382;2023-04-15T03:46:52;8.05;;;3.95;;
78148;SDS011;67396;42.664;23.382;2023-04-15T03:49:36;10.43;;;4.80;;
78148;SDS011;67396;42.664;23.382;2023-04-15T03:52:02;11.40;;;4.35;;
78148;SDS011;67396;42.664;23.382;2023-04-15T03:54:28;12.60;;;3.90;;
78148;SDS011;67396;42.664;23.382;2023-04-15T03:56:54;9.73;;;4.60;;
78148;SDS011;67396;42.664;23.382;2023-04-15T03:59:20;9.50;;;3.97;;
78148;SDS011;67396;42.664;23.382;2023-04-15T04:01:50;10.82;;;5.00;;
78148;SDS011;67396;42.664;23.382;2023-04-15T04:04:15;11.73;;;4.55;;
78148;SDS011;67396;42.664;23.382;2023-04-15T04:06:42;7.05;;;4.20;;
78148;SDS011;67396;42.664;23.382;2023-04-15T04:09:08;12.65;;;4.85;;
78148;SDS011;67396;42.664;23.382;2023-04-15T04:11:33;10.55;;;4.60;;
78148;SDS011;67396;42.664;23.382;2023-04-15T04:13:59;10.40;;;5.03;;
78148;SDS011;67396;42.664;23.382;2023-04-15T04:16:25;13.05;;;4.97;;
78148;SDS011;67396;42.664;23.382;2023-04-15T04:18:55;7.03;;;3.85;;
78148;SDS011;67396;42.664;23.382;2023-04-15T04:21:21;9.60;;;4.25;;
78148;SDS011;67396;42.664;23.382;2023-04-15T04:23:47;9.98;;;4.72;;
78148;SDS011;67396;42.664;23.382;2023-04-15T04:26:15;10.93;;;4.78;;
78148;SDS011;67396;42.664;23.382;2023-04-15T04:28:43;9.95;;;4.75;;
78148;SDS011;67396;42.664;23.382;2023-04-15T04:31:11;11.65;;;5.03;;
78148;SDS011;67396;42.664;23.382;2023-04-15T04:33:41;16.50;;;5.70;;
78148;SDS011;67396;42.664;23.382;2023-04-15T04:36:08;11.65;;;6.20;;
78148;SDS011;67396;42.664;23.382;2023-04-15T04:38:36;10.65;;;5.85;;
78148;SDS011;67396;42.664;23.382;2023-04-15T04:41:08;11.07;;;5.85;;
78148;SDS011;67396;42.664;23.382;2023-04-15T04:43:38;13.48;;;6.70;;
78148;SDS011;67396;42.664;23.382;2023-04-15T04:46:07;14.35;;;6.03;;
78148;SDS011;67396;42.664;23.382;2023-04-15T04:48:33;12.18;;;6.60;;
78148;SDS011;67396;42.664;23.382;2023-04-15T04:50:58;11.57;;;7.38;;
78148;SDS011;67396;42.664;23.382;2023-04-15T04:53:24;14.80;;;7.50;;
78148;SDS011;67396;42.664;23.382;2023-04-15T04:55:49;12.60;;;6.78;;
78148;SDS011;67396;42.664;23.382;2023-04-15T04:58:15;13.75;;;7.43;;
78148;SDS011;67396;42.664;23.382;2023-04-15T05:00:45;13.73;;;7.78;;
78148;SDS011;67396;42.664;23.382;2023-04-15T05:03:14;13.32;;;6.82;;
78148;SDS011;67396;42.664;23.382;2023-04-15T05:05:40;11.60;;;7.57;;
78148;SDS011;67396;42.664;23.382;2023-04-15T05:08:06;12.57;;;6.95;;
78148;SDS011;67396;42.664;23.382;2023-04-15T05:12:58;12.05;;;6.10;;
78148;SDS011;67396;42.664;23.382;2023-04-15T05:15:24;12.18;;;6.15;;
78148;SDS011;67396;42.664;23.382;2023-04-15T05:17:52;13.18;;;5.07;;
78148;SDS011;67396;42.664;23.382;2023-04-15T05:20:21;12.07;;;5.25;;
78148;SDS011;67396;42.664;23.382;2023-04-15T05:22:46;9.55;;;5.22;;
78148;SDS011;67396;42.664;23.382;2023-04-15T05:25:11;11.70;;;5.47;;
78148;SDS011;67396;42.664;23.382;2023-04-15T05:27:37;9.98;;;4.70;;
78148;SDS011;67396;42.664;23.382;2023-04-15T05:30:03;8.07;;;3.80;;
78148;SDS011;67396;42.664;23.382;2023-04-15T05:32:29;7.72;;;3.65;;
78148;SDS011;67396;42.664;23.382;2023-04-15T05:34:55;8.48;;;5.18;;
78148;SDS011;67396;42.664;23.382;2023-04-15T05:37:20;8.88;;;4.15;;
78148;SDS011;67396;42.664;23.382;2023-04-15T05:39:46;8.55;;;4.43;;
78148;SDS011;67396;42.664;23.382;2023-04-15T05:42:21;10.57;;;5.57;;
78148;SDS011;67396;42.664;23.382;2023-04-15T05:44:49;11.70;;;5.72;;
78148;SDS011;67396;42.664;23.382;2023-04-15T05:47:18;11.48;;;4.63;;
78148;SDS011;67396;42.664;23.382;2023-04-15T05:49:44;8.18;;;4.28;;
78148;SDS011;67396;42.664;23.382;2023-04-15T05:52:12;6.80;;;4.00;;
78148;SDS011;67396;42.664;23.382;2023-04-15T05:54:38;8.90;;;4.05;;
78148;SDS011;67396;42.664;23.382;2023-04-15T05:57:03;8.23;;;3.90;;
78148;SDS011;67396;42.664;23.382;2023-04-15T05:59:29;8.43;;;5.60;;
78148;SDS011;67396;42.664;23.382;2023-04-15T06:01:57;11.70;;;6.13;;
78148;SDS011;67396;42.664;23.382;2023-04-15T06:04:25;14.30;;;5.78;;
78148;SDS011;67396;42.664;23.382;2023-04-15T06:06:54;10.18;;;5.13;;
78148;SDS011;67396;42.664;23.382;2023-04-15T06:09:24;7.47;;;3.17;;
78148;SDS011;67396;42.664;23.382;2023-04-15T06:11:57;8.02;;;3.60;;
78148;SDS011;67396;42.664;23.382;2023-04-15T06:14:26;7.68;;;3.65;;
78148;SDS011;67396;42.664;23.382;2023-04-15T06:19:41;7.10;;;3.10;;
78148;SDS011;67396;42.664;23.382;2023-04-15T06:22:23;8.13;;;3.60;;
78148;SDS011;67396;42.664;23.382;2023-04-15T06:24:54;4.57;;;2.92;;
78148;SDS011;67396;42.664;23.382;2023-04-15T06:27:36;9.50;;;3.70;;
78148;SDS011;67396;42.664;23.382;2023-04-15T06:30:15;12.27;;;4.60;;
78148;SDS011;67396;42.664;23.382;2023-04-15T06:32:45;11.00;;;4.68;;
78148;SDS011;67396;42.664;23.382;2023-04-15T06:35:39;9.82;;;4.65;;
78148;SDS011;67396;42.664;23.382;2023-04-15T06:38:12;10.35;;;4.45;;
78148;SDS011;67396;42.664;23.382;2023-04-15T06:40:42;9.77;;;4.88;;
78148;SDS011;67396;42.664;23.382;2023-04-15T06:43:23;7.80;;;3.92;;
78148;SDS011;67396;42.664;23.382;2023-04-15T06:45:56;7.25;;;3.78;;
78148;SDS011;67396;42.664;23.382;2023-04-15T06:48:22;9.63;;;4.15;;
78148;SDS011;67396;42.664;23.382;2023-04-15T06:50:48;10.50;;;4.57;;
78148;SDS011;67396;42.664;23.382;2023-04-15T06:53:16;10.13;;;4.43;;
78148;SDS011;67396;42.664;23.382;2023-04-15T06:55:42;9.23;;;4.53;;
78148;SDS011;67396;42.664;23.382;2023-04-15T06:58:16;9.27;;;4.50;;
78148;SDS011;67396;42.664;23.382;2023-04-15T07:00:44;8.57;;;4.03;;
78148;SDS011;67396;42.664;23.382;2023-04-15T07:03:13;8.75;;;3.97;;
78148;SDS011;67396;42.664;23.382;2023-04-15T07:05:50;8.32;;;3.03;;
78148;SDS011;67396;42.664;23.382;2023-04-15T07:08:19;7.68;;;2.80;;
78148;SDS011;67396;42.664;23.382;2023-04-15T07:10:45;9.15;;;3.33;;
78148;SDS011;67396;42.664;23.382;2023-04-15T07:13:13;11.73;;;3.67;;
78148;SDS011;67396;42.664;23.382;2023-04-15T07:15:38;8.98;;;3.45;;
78148;SDS011;67396;42.664;23.382;2023-04-15T07:18:06;8.82;;;2.90;;
78148;SDS011;67396;42.664;23.382;2023-04-15T07:20:34;4.10;;;2.78;;
78148;SDS011;67396;42.664;23.382;2023-04-15T07:23:00;10.85;;;4.07;;
78148;SDS011;67396;42.664;23.382;2023-04-15T07:25:27;7.63;;;3.00;;
78148;SDS011;67396;42.664;23.382;2023-04-15T07:27:53;6.57;;;3.33;;
78148;SDS011;67396;42.664;23.382;2023-04-15T07:30:26;9.68;;;3.47;;
78148;SDS011;67396;42.664;23.382;2023-04-15T07:32:54;10.02;;;3.88;;
78148;SDS011;67396;42.664;23.382;2023-04-15T07:35:20;10.13;;;4.10;;
78148;SDS011;67396;42.664;23.382;2023-04-15T07:37:46;14.60;;;4.85;;
78148;SDS011;67396;42.664;23.382;2023-04-15T07:40:15;10.90;;;3.72;;
78148;SDS011;67396;42.664;23.382;2023-04-15T07:42:41;8.15;;;3.42;;
78148;SDS011;67396;42.664;23.382;2023-04-15T07:45:07;11.43;;;4.43;;
78148;SDS011;67396;42.664;23.382;2023-04-15T07:47:33;11.57;;;4.10;;
78148;SDS011;67396;42.664;23.382;2023-04-15T07:50:15;6.57;;;3.50;;
78148;SDS011;67396;42.664;23.382;2023-04-15T07:53:06;6.63;;;4.40;;
78148;SDS011;67396;42.664;23.382;2023-04-15T07:55:34;7.22;;;3.45;;
78148;SDS011;67396;42.664;23.382;2023-04-15T07:57:59;12.27;;;4.00;;
78148;SDS011;67396;42.664;23.382;2023-04-15T08:00:33;8.25;;;2.72;;
78148;SDS011;67396;42.664;23.382;2023-04-15T08:02:59;6.10;;;3.80;;
78148;SDS011;67396;42.664;23.382;2023-04-15T08:05:24;10.68;;;3.22;;
78148;SDS011;67396;42.664;23.382;2023-04-15T08:07:53;8.43;;;4.07;;
78148;SDS011;67396;42.664;23.382;2023-04-15T08:10:28;7.05;;;3.83;;
78148;SDS011;67396;42.664;23.382;2023-04-15T08:13:00;9.93;;;3.63;;
78148;SDS011;67396;42.664;23.382;2023-04-15T08:15:28;7.55;;;3.55;;
78148;SDS011;67396;42.664;23.382;2023-04-15T08:18:03;13.13;;;3.90;;
78148;SDS011;67396;42.664;23.382;2023-04-15T08:20:34;6.47;;;3.17;;
78148;SDS011;67396;42.664;23.382;2023-04-15T08:22:59;9.75;;;3.40;;
78148;SDS011;67396;42.664;23.382;2023-04-15T08:25:25;9.60;;;3.80;;
78148;SDS011;67396;42.664;23.382;2023-04-15T08:27:56;8.93;;;3.67;;
78148;SDS011;67396;42.664;23.382;2023-04-15T08:30:33;10.95;;;3.80;;
78148;SDS011;67396;42.664;23.382;2023-04-15T08:32:59;7.55;;;3.55;;
78148;SDS011;67396;42.664;23.382;2023-04-15T08:35:26;9.07;;;3.10;;
78148;SDS011;67396;42.664;23.382;2023-04-15T08:37:52;8.05;;;3.17;;
78148;SDS011;67396;42.664;23.382;2023-04-15T08:40:24;5.88;;;3.10;;
78148;SDS011;67396;42.664;23.382;2023-04-15T08:43:04;6.90;;;2.85;;
78148;SDS011;67396;42.664;23.382;2023-04-15T08:46:02;8.05;;;3.38;;
78148;SDS011;67396;42.664;23.382;2023-04-15T08:48:39;8.27;;;3.40;;
78148;SDS011;67396;42.664;23.382;2023-04-15T08:51:08;8.50;;;3.85;;
78148;SDS011;67396;42.664;23.382;2023-04-15T08:53:43;5.65;;;3.40;;
78148;SDS011;67396;42.664;23.382;2023-04-15T08:56:27;8.13;;;4.43;;
78148;SDS011;67396;42.664;23.382;2023-04-15T08:59:07;7.07;;;2.40;;
78148;SDS011;67396;42.664;23.382;2023-04-15T09:01:33;6.95;;;2.55;;
78148;SDS011;67396;42.664;23.382;2023-04-15T09:04:22;3.17;;;1.63;;
78148;SDS011;67396;42.664;23.382;2023-04-15T09:06:53;7.43;;;1.80;;
78148;SDS011;67396;42.664;23.382;2023-04-15T09:09:21;4.50;;;1.60;;
78148;SDS011;67396;42.664;23.382;2023-04-15T09:11:57;4.63;;;1.90;;
78148;SDS011;67396;42.664;23.382;2023-04-15T09:14:28;4.85;;;1.63;;
78148;SDS011;67396;42.664;23.382;2023-04-15T09:17:07;3.28;;;1.67;;
78148;SDS011;67396;42.664;23.382;2023-04-15T09:19:49;3.17;;;1.60;;
78148;SDS011;67396;42.664;23.382;2023-04-15T09:22:46;4.03;;;1.48;;
78148;SDS011;67396;42.664;23.382;2023-04-15T09:27:57;3.53;;;1.30;;
78148;SDS011;67396;42.664;23.382;2023-04-15T09:30:32;5.15;;;1.90;;
78148;SDS011;67396;42.664;23.382;2023-04-15T09:33:01;2.13;;;1.25;;
78148;SDS011;67396;42.664;23.382;2023-04-15T09:35:32;6.00;;;1.45;;
78148;SDS011;67396;42.664;23.382;2023-04-15T09:38:10;9.15;;;1.38;;
78148;SDS011;67396;42.664;23.382;2023-04-15T09:40:42;2.83;;;1.20;;
78148;SDS011;67396;42.664;23.382;2023-04-15T09:43:08;5.82;;;1.83;;
78148;SDS011;67396;42.664;23.382;2023-04-15T09:45:37;2.97;;;1.35;;
78148;SDS011;67396;42.664;23.382;2023-04-15T09:48:15;5.60;;;1.25;;
78148;SDS011;67396;42.664;23.382;2023-04-15T09:50:49;4.15;;;1.17;;
78148;SDS011;67396;42.664;23.382;2023-04-15T09:53:21;3.42;;;1.38;;
78148;SDS011;67396;42.664;23.382;2023-04-15T09:55:55;3.40;;;1.25;;
78148;SDS011;67396;42.664;23.382;2023-04-15T09:58:26;5.82;;;1.65;;
78148;SDS011;67396;42.664;23.382;2023-04-15T10:00:55;4.03;;;1.08;;
78148;SDS011;67396;42.664;23.382;2023-04-15T10:05:49;5.57;;;1.30;;
78148;SDS011;67396;42.664;23.382;2023-04-15T10:08:17;4.78;;;1.13;;
78148;SDS011;67396;42.664;23.382;2023-04-15T10:10:47;3.00;;;1.20;;
78148;SDS011;67396;42.664;23.382;2023-04-15T10:13:13;4.13;;;1.45;;
78148;SDS011;67396;42.664;23.382;2023-04-15T10:15:43;4.20;;;1.20;;
78148;SDS011;67396;42.664;23.382;2023-04-15T10:18:11;3.10;;;1.45;;
78148;SDS011;67396;42.664;23.382;2023-04-15T10:20:58;4.78;;;1.20;;
78148;SDS011;67396;42.664;23.382;2023-04-15T10:23:24;3.33;;;1.30;;
78148;SDS011;67396;42.664;23.382;2023-04-15T10:25:51;3.92;;;1.17;;
78148;SDS011;67396;42.664;23.382;2023-04-15T10:28:23;2.40;;;0.82;;
78148;SDS011;67396;42.664;23.382;2023-04-15T10:30:49;2.83;;;0.95;;
78148;SDS011;67396;42.664;23.382;2023-04-15T10:33:17;4.38;;;1.73;;
78148;SDS011;67396;42.664;23.382;2023-04-15T10:35:45;4.95;;;1.55;;
78148;SDS011;67396;42.664;23.382;2023-04-15T10:43:55;5.30;;;1.88;;
78148;SDS011;67396;42.664;23.382;2023-04-15T10:51:42;3.45;;;1.35;;
78148;SDS011;67396;42.664;23.382;2023-04-15T10:54:15;3.03;;;1.00;;
78148;SDS011;67396;42.664;23.382;2023-04-15T10:59:59;6.25;;;2.13;;
78148;SDS011;67396;42.664;23.382;2023-04-15T11:05:05;2.22;;;1.27;;
78148;SDS011;67396;42.664;23.382;2023-04-15T11:07:43;3.80;;;1.50;;
78148;SDS011;67396;42.664;23.382;2023-04-15T11:12:38;3.72;;;1.50;;
78148;SDS011;67396;42.664;23.382;2023-04-15T11:17:51;3.40;;;1.23;;
78148;SDS011;67396;42.664;23.382;2023-04-15T11:20:17;3.25;;;1.65;;
78148;SDS011;67396;42.664;23.382;2023-04-15T11:22:46;5.82;;;1.65;;
78148;SDS011;67396;42.664;23.382;2023-04-15T11:25:28;4.50;;;1.63;;
78148;SDS011;67396;42.664;23.382;2023-04-15T11:27:55;6.18;;;1.23;;
78148;SDS011;67396;42.664;23.382;2023-04-15T11:30:24;4.68;;;1.50;;
78148;SDS011;67396;42.664;23.382;2023-04-15T11:32:52;2.08;;;1.10;;
78148;SDS011;67396;42.664;23.382;2023-04-15T11:35:24;2.70;;;1.20;;
78148;SDS011;67396;42.664;23.382;2023-04-15T11:37:52;3.03;;;1.20;;
78148;SDS011;67396;42.664;23.382;2023-04-15T11:40:29;9.13;;;1.70;;
78148;SDS011;67396;42.664;23.382;2023-04-15T11:46:00;5.10;;;1.33;;
78148;SDS011;67396;42.664;23.382;2023-04-15T11:48:31;6.60;;;1.13;;
78148;SDS011;67396;42.664;23.382;2023-04-15T11:51:09;2.53;;;1.30;;
78148;SDS011;67396;42.664;23.382;2023-04-15T11:53:36;5.65;;;1.13;;
78148;SDS011;67396;42.664;23.382;2023-04-15T11:56:03;3.65;;;1.73;;
78148;SDS011;67396;42.664;23.382;2023-04-15T11:58:33;4.30;;;1.30;;
78148;SDS011;67396;42.664;23.382;2023-04-15T12:01:01;3.75;;;1.48;;
78148;SDS011;67396;42.664;23.382;2023-04-15T12:03:28;6.40;;;1.90;;
78148;SDS011;67396;42.664;23.382;2023-04-15T12:06:08;2.50;;;1.40;;
78148;SDS011;67396;42.664;23.382;2023-04-15T12:16:28;11.10;;;1.52;;
78148;SDS011;67396;42.664;23.382;2023-04-15T12:18:55;2.65;;;1.23;;
78148;SDS011;67396;42.664;23.382;2023-04-15T12:21:23;3.85;;;1.15;;
78148;SDS011;67396;42.664;23.382;2023-04-15T12:23:54;2.80;;;1.15;;
78148;SDS011;67396;42.664;23.382;2023-04-15T12:26:25;3.55;;;1.38;;
78148;SDS011;67396;42.664;23.382;2023-04-15T12:29:09;4.75;;;0.95;;
78148;SDS011;67396;42.664;23.382;2023-04-15T12:34:13;4.30;;;1.42;;
78148;SDS011;67396;42.664;23.382;2023-04-15T12:36:39;2.97;;;0.70;;
78148;SDS011;67396;42.664;23.382;2023-04-15T12:39:05;3.60;;;0.93;;
78148;SDS011;67396;42.664;23.382;2023-04-15T12:41:31;1.83;;;0.90;;
78148;SDS011;67396;42.664;23.382;2023-04-15T12:43:57;2.30;;;1.00;;
78148;SDS011;67396;42.664;23.382;2023-04-15T12:46:23;2.55;;;0.60;;
78148;SDS011;67396;42.664;23.382;2023-04-15T12:48:49;2.08;;;0.80;;
78148;SDS011;67396;42.664;23.382;2023-04-15T12:51:17;2.00;;;0.70;;
78148;SDS011;67396;42.664;23.382;2023-04-15T12:53:45;4.28;;;0.82;;
78148;SDS011;67396;42.664;23.382;2023-04-15T12:56:12;4.47;;;0.75;;
78148;SDS011;67396;42.664;23.382;2023-04-15T12:58:40;2.85;;;0.80;;
78148;SDS011;67396;42.664;23.382;2023-04-15T13:01:09;1.73;;;0.88;;
78148;SDS011;67396;42.664;23.382;2023-04-15T13:03:35;3.15;;;1.00;;
78148;SDS011;67396;42.664;23.382;2023-04-15T13:06:00;3.00;;;0.80;;
78148;SDS011;67396;42.664;23.382;2023-04-15T13:08:32;4.30;;;0.85;;
78148;SDS011;67396;42.664;23.382;2023-04-15T13:11:00;4.00;;;0.85;;
78148;SDS011;67396;42.664;23.382;2023-04-15T13:13:26;1.80;;;1.05;;
78148;SDS011;67396;42.664;23.382;2023-04-15T13:15:52;2.47;;;0.93;;
78148;SDS011;67396;42.664;23.382;2023-04-15T13:18:18;3.65;;;0.82;;
78148;SDS011;67396;42.664;23.382;2023-04-15T13:20:44;3.45;;;1.13;;
78148;SDS011;67396;42.664;23.382;2023-04-15T13:23:09;1.25;;;0.55;;
78148;SDS011;67396;42.664;23.382;2023-04-15T13:25:38;2.22;;;0.75;;
78148;SDS011;67396;42.664;23.382;2023-04-15T13:28:05;3.60;;;0.60;;
78148;SDS011;67396;42.664;23.382;2023-04-15T13:30:30;3.17;;;0.70;;
78148;SDS011;67396;42.664;23.382;2023-04-15T13:32:56;0.85;;;0.45;;
78148;SDS011;67396;42.664;23.382;2023-04-15T13:35:25;1.83;;;0.73;;
78148;SDS011;67396;42.664;23.382;2023-04-15T13:37:50;1.33;;;0.73;;
78148;SDS011;67396;42.664;23.382;2023-04-15T13:40:18;4.78;;;0.90;;
78148;SDS011;67396;42.664;23.382;2023-04-15T13:42:44;2.88;;;0.60;;
78148;SDS011;67396;42.664;23.382;2023-04-15T13:45:10;2.42;;;0.70;;
78148;SDS011;67396;42.664;23.382;2023-04-15T13:47:35;3.88;;;0.90;;
78148;SDS011;67396;42.664;23.382;2023-04-15T13:50:01;1.70;;;0.50;;
78148;SDS011;67396;42.664;23.382;2023-04-15T13:52:26;4.82;;;1.45;;
78148;SDS011;67396;42.664;23.382;2023-04-15T13:54:52;1.42;;;0.70;;
78148;SDS011;67396;42.664;23.382;2023-04-15T13:57:17;3.15;;;0.80;;
78148;SDS011;67396;42.664;23.382;2023-04-15T13:59:43;1.30;;;0.65;;
78148;SDS011;67396;42.664;23.382;2023-04-15T14:02:12;1.95;;;0.70;;
78148;SDS011;67396;42.664;23.382;2023-04-15T14:04:40;3.50;;;0.52;;
78148;SDS011;67396;42.664;23.382;2023-04-15T14:07:06;2.22;;;0.98;;
78148;SDS011;67396;42.664;23.382;2023-04-15T14:09:31;1.88;;;0.77;;
78148;SDS011;67396;42.664;23.382;2023-04-15T14:11:57;2.63;;;0.80;;
78148;SDS011;67396;42.664;23.382;2023-04-15T14:14:26;2.08;;;0.60;;
78148;SDS011;67396;42.664;23.382;2023-04-15T14:16:52;2.58;;;0.77;;
78148;SDS011;67396;42.664;23.382;2023-04-15T14:19:24;1.60;;;0.52;;
78148;SDS011;67396;42.664;23.382;2023-04-15T14:21:54;2.42;;;0.65;;
78148;SDS011;67396;42.664;23.382;2023-04-15T14:24:20;2.80;;;0.70;;
78148;SDS011;67396;42.664;23.382;2023-04-15T14:26:45;2.80;;;1.10;;
78148;SDS011;67396;42.664;23.382;2023-04-15T14:29:10;5.43;;;1.08;;
78148;SDS011;67396;42.664;23.382;2023-04-15T14:31:36;2.45;;;1.13;;
78148;SDS011;67396;42.664;23.382;2023-04-15T14:34:02;3.25;;;1.17;;
78148;SDS011;67396;42.664;23.382;2023-04-15T14:36:27;4.20;;;1.40;;
78148;SDS011;67396;42.664;23.382;2023-04-15T14:38:53;3.47;;;1.10;;
78148;SDS011;67396;42.664;23.382;2023-04-15T14:41:18;2.90;;;1.17;;
78148;SDS011;67396;42.664;23.382;2023-04-15T14:43:44;4.18;;;0.95;;
78148;SDS011;67396;42.664;23.382;2023-04-15T14:46:09;2.72;;;1.30;;
78148;SDS011;67396;42.664;23.382;2023-04-15T14:48:35;4.30;;;1.30;;
78148;SDS011;67396;42.664;23.382;2023-04-15T14:51:00;3.33;;;1.17;;
78148;SDS011;67396;42.664;23.382;2023-04-15T14:53:33;5.05;;;1.38;;
78148;SDS011;67396;42.664;23.382;2023-04-15T14:55:59;3.88;;;0.93;;
78148;SDS011;67396;42.664;23.382;2023-04-15T14:58:24;7.80;;;1.40;;
78148;SDS011;67396;42.664;23.382;2023-04-15T15:00:50;3.50;;;1.30;;
78148;SDS011;67396;42.664;23.382;2023-04-15T15:03:15;3.10;;;1.20;;
78148;SDS011;67396;42.664;23.382;2023-04-15T15:05:44;6.43;;;1.20;;
78148;SDS011;67396;42.664;23.382;2023-04-15T15:08:13;4.55;;;0.85;;
78148;SDS011;67396;42.664;23.382;2023-04-15T15:10:39;1.48;;;1.20;;
78148;SDS011;67396;42.664;23.382;2023-04-15T15:13:08;3.95;;;1.73;;
78148;SDS011;67396;42.664;23.382;2023-04-15T15:15:34;2.35;;;1.00;;
78148;SDS011;67396;42.664;23.382;2023-04-15T15:18:01;4.47;;;1.25;;
78148;SDS011;67396;42.664;23.382;2023-04-15T15:20:27;1.77;;;1.00;;
78148;SDS011;67396;42.664;23.382;2023-04-15T15:22:53;3.90;;;0.88;;
78148;SDS011;67396;42.664;23.382;2023-04-15T15:25:22;5.47;;;1.60;;
78148;SDS011;67396;42.664;23.382;2023-04-15T15:27:47;2.88;;;0.82;;
78148;SDS011;67396;42.664;23.382;2023-04-15T15:30:15;3.60;;;1.27;;
78148;SDS011;67396;42.664;23.382;2023-04-15T15:32:41;3.08;;;0.80;;
78148;SDS011;67396;42.664;23.382;2023-04-15T15:35:08;2.28;;;0.85;;
78148;SDS011;67396;42.664;23.382;2023-04-15T15:37:34;2.17;;;0.90;;
78148;SDS011;67396;42.664;23.382;2023-04-15T15:40:03;4.47;;;1.35;;
78148;SDS011;67396;42.664;23.382;2023-04-15T15:42:30;2.60;;;0.80;;
78148;SDS011;67396;42.664;23.382;2023-04-15T15:44:58;2.17;;;0.80;;
78148;SDS011;67396;42.664;23.382;2023-04-15T15:47:26;2.42;;;0.90;;
78148;SDS011;67396;42.664;23.382;2023-04-15T15:49:54;3.35;;;1.30;;
78148;SDS011;67396;42.664;23.382;2023-04-15T15:52:20;1.67;;;0.82;;
78148;SDS011;67396;42.664;23.382;2023-04-15T15:54:48;3.85;;;1.13;;
78148;SDS011;67396;42.664;23.382;2023-04-15T15:57:18;3.88;;;1.30;;
78148;SDS011;67396;42.664;23.382;2023-04-15T15:59:47;4.90;;;1.23;;